sensor_id;sensor_type;location;lat;lon;timestamp;pressure;altitude;pressure_sealevel;temperature;humidity
27840;BME280;15207;42.182;24.308;2023-08-07T00:00:19;98405.25;;;22.98;52.77
27840;BME280;15207;42.182;24.308;2023-08-07T00:02:44;98415.22;;;22.85;53.34
27840;BME280;15207;42.182;24.308;2023-08-07T00:05:10;98418.56;;;22.88;53.53
27840;BME280;15207;42.182;24.308;2023-08-07T00:07:36;98427.47;;;22.76;53.91
27840;BME280;15207;42.182;24.308;2023-08-07T00:10:01;98431.38;;;22.62;54.99
27840;BME280;15207;42.182;24.308;2023-08-07T00:12:28;98432.03;;;22.57;55.16
27840;BME280;15207;42.182;24.308;2023-08-07T00:14:53;98429.34;;;22.50;55.62
27840;BME280;15207;42.182;24.308;2023-08-07T00:17:19;98435.00;;;22.49;56.53
27840;BME280;15207;42.182;24.308;2023-08-07T00:19:44;98433.56;;;22.46;57.08
27840;BME280;15207;42.182;24.308;2023-08-07T00:22:09;98434.66;;;22.38;57.72
27840;BME280;15207;42.182;24.308;2023-08-07T00:24:35;98441.63;;;22.27;58.10
27840;BME280;15207;42.182;24.308;2023-08-07T00:27:01;98452.75;;;22.26;58.22
27840;BME280;15207;42.182;24.308;2023-08-07T00:29:27;98460.38;;;22.10;59.26
27840;BME280;15207;42.182;24.308;2023-08-07T00:31:52;98468.34;;;22.12;59.40
27840;BME280;15207;42.182;24.308;2023-08-07T00:34:18;98464.41;;;22.01;59.84
27840;BME280;15207;42.182;24.308;2023-08-07T00:36:43;98462.97;;;21.98;59.88
27840;BME280;15207;42.182;24.308;2023-08-07T00:39:09;98466.53;;;21.99;58.37
27840;BME280;15207;42.182;24.308;2023-08-07T00:41:35;98461.69;;;22.01;57.47
27840;BME280;15207;42.182;24.308;2023-08-07T00:44:01;98466.75;;;21.97;57.41
27840;BME280;15207;42.182;24.308;2023-08-07T00:46:28;98480.38;;;21.90;57.73
27840;BME280;15207;42.182;24.308;2023-08-07T00:48:54;98475.19;;;21.89;57.57
27840;BME280;15207;42.182;24.308;2023-08-07T00:51:21;98468.91;;;21.68;57.66
27840;BME280;15207;42.182;24.308;2023-08-07T00:53:48;98479.59;;;21.70;58.64
27840;BME280;15207;42.182;24.308;2023-08-07T00:56:14;98485.91;;;21.57;58.21
27840;BME280;15207;42.182;24.308;2023-08-07T00:58:40;98483.84;;;21.52;59.45
27840;BME280;15207;42.182;24.308;2023-08-07T01:01:06;98490.34;;;21.44;59.60
27840;BME280;15207;42.182;24.308;2023-08-07T01:03:32;98498.72;;;21.43;59.45
27840;BME280;15207;42.182;24.308;2023-08-07T01:05:57;98501.66;;;21.34;59.87
27840;BME280;15207;42.182;24.308;2023-08-07T01:08:24;98500.41;;;21.37;60.14
27840;BME280;15207;42.182;24.308;2023-08-07T01:11:03;98497.28;;;21.33;60.64
27840;BME280;15207;42.182;24.308;2023-08-07T01:16:02;98503.78;;;21.19;60.97
27840;BME280;15207;42.182;24.308;2023-08-07T01:18:34;98504.41;;;21.14;60.55
27840;BME280;15207;42.182;24.308;2023-08-07T01:21:00;98502.94;;;21.11;61.03
27840;BME280;15207;42.182;24.308;2023-08-07T01:23:27;98505.03;;;21.16;61.10
27840;BME280;15207;42.182;24.308;2023-08-07T01:25:53;98508.81;;;21.15;61.73
27840;BME280;15207;42.182;24.308;2023-08-07T01:28:33;98497.06;;;21.08;62.26
27840;BME280;15207;42.182;24.308;2023-08-07T01:31:03;98501.28;;;21.04;62.48
27840;BME280;15207;42.182;24.308;2023-08-07T01:33:57;98496.25;;;20.94;63.15
27840;BME280;15207;42.182;24.308;2023-08-07T01:36:27;98493.69;;;20.79;63.91
27840;BME280;15207;42.182;24.308;2023-08-07T01:38:59;98491.19;;;20.77;63.80
27840;BME280;15207;42.182;24.308;2023-08-07T01:41:25;98488.25;;;20.65;64.76
27840;BME280;15207;42.182;24.308;2023-08-07T01:43:52;98488.03;;;20.67;65.16
27840;BME280;15207;42.182;24.308;2023-08-07T01:46:18;98477.59;;;20.77;64.00
27840;BME280;15207;42.182;24.308;2023-08-07T01:48:44;98478.19;;;20.72;63.72
27840;BME280;15207;42.182;24.308;2023-08-07T01:51:09;98481.97;;;20.71;64.17
27840;BME280;15207;42.182;24.308;2023-08-07T01:53:35;98482.59;;;20.67;64.53
27840;BME280;15207;42.182;24.308;2023-08-07T01:56:00;98495.16;;;20.68;64.54
27840;BME280;15207;42.182;24.308;2023-08-07T01:58:26;98495.75;;;20.56;64.45
27840;BME280;15207;42.182;24.308;2023-08-07T02:00:51;98503.47;;;20.53;65.19
27840;BME280;15207;42.182;24.308;2023-08-07T02:03:17;98519.00;;;20.59;64.87
27840;BME280;15207;42.182;24.308;2023-08-07T02:05:45;98522.31;;;20.61;64.57
27840;BME280;15207;42.182;24.308;2023-08-07T02:08:11;98530.69;;;20.59;64.98
27840;BME280;15207;42.182;24.308;2023-08-07T02:10:36;98537.66;;;20.82;64.38
27840;BME280;15207;42.182;24.308;2023-08-07T02:13:02;98540.19;;;21.04;63.66
27840;BME280;15207;42.182;24.308;2023-08-07T02:15:27;98546.25;;;21.13;62.93
27840;BME280;15207;42.182;24.308;2023-08-07T02:17:53;98549.84;;;21.13;62.18
27840;BME280;15207;42.182;24.308;2023-08-07T02:20:18;98563.63;;;20.98;62.34
27840;BME280;15207;42.182;24.308;2023-08-07T02:22:45;98568.38;;;20.83;63.17
27840;BME280;15207;42.182;24.308;2023-08-07T02:25:10;98562.72;;;20.64;63.72
27840;BME280;15207;42.182;24.308;2023-08-07T02:27:36;98569.75;;;20.45;64.15
27840;BME280;15207;42.182;24.308;2023-08-07T02:30:02;98574.38;;;20.44;65.24
27840;BME280;15207;42.182;24.308;2023-08-07T02:32:29;98570.63;;;20.52;65.25
27840;BME280;15207;42.182;24.308;2023-08-07T02:34:54;98576.28;;;20.57;64.57
27840;BME280;15207;42.182;24.308;2023-08-07T02:37:20;98574.22;;;20.66;64.65
27840;BME280;15207;42.182;24.308;2023-08-07T02:39:46;98580.72;;;20.65;64.44
27840;BME280;15207;42.182;24.308;2023-08-07T02:42:12;98579.47;;;20.74;64.08
27840;BME280;15207;42.182;24.308;2023-08-07T02:44:37;98588.00;;;20.58;64.49
27840;BME280;15207;42.182;24.308;2023-08-07T02:47:03;98589.25;;;20.55;64.81
27840;BME280;15207;42.182;24.308;2023-08-07T02:49:29;98593.47;;;20.65;64.47
27840;BME280;15207;42.182;24.308;2023-08-07T02:51:54;98592.06;;;20.82;64.12
27840;BME280;15207;42.182;24.308;2023-08-07T02:54:20;98586.59;;;20.75;64.59
27840;BME280;15207;42.182;24.308;2023-08-07T02:56:45;98585.50;;;20.70;64.79
27840;BME280;15207;42.182;24.308;2023-08-07T02:59:11;98586.53;;;20.62;64.81
27840;BME280;15207;42.182;24.308;2023-08-07T03:01:38;98587.63;;;20.68;64.47
27840;BME280;15207;42.182;24.308;2023-08-07T03:04:04;98592.84;;;20.69;64.20
27840;BME280;15207;42.182;24.308;2023-08-07T03:06:29;98589.50;;;20.74;63.72
27840;BME280;15207;42.182;24.308;2023-08-07T03:08:55;98583.88;;;20.82;63.08
27840;BME280;15207;42.182;24.308;2023-08-07T03:11:21;98589.59;;;20.94;62.58
27840;BME280;15207;42.182;24.308;2023-08-07T03:13:47;98589.78;;;20.93;62.72
27840;BME280;15207;42.182;24.308;2023-08-07T03:16:14;98591.88;;;20.97;62.86
27840;BME280;15207;42.182;24.308;2023-08-07T03:18:39;98594.56;;;20.84;63.05
27840;BME280;15207;42.182;24.308;2023-08-07T03:21:05;98603.97;;;20.81;63.38
27840;BME280;15207;42.182;24.308;2023-08-07T03:23:31;98604.59;;;20.77;64.32
27840;BME280;15207;42.182;24.308;2023-08-07T03:26:22;98605.59;;;20.69;64.39
27840;BME280;15207;42.182;24.308;2023-08-07T03:28:48;98611.44;;;20.66;64.27
27840;BME280;15207;42.182;24.308;2023-08-07T03:31:14;98612.09;;;20.68;63.83
27840;BME280;15207;42.182;24.308;2023-08-07T03:33:40;98611.28;;;20.74;64.07
27840;BME280;15207;42.182;24.308;2023-08-07T03:36:05;98607.94;;;20.85;63.08
27840;BME280;15207;42.182;24.308;2023-08-07T03:38:31;98611.59;;;20.99;62.44
27840;BME280;15207;42.182;24.308;2023-08-07T03:40:56;98611.81;;;21.05;62.40
27840;BME280;15207;42.182;24.308;2023-08-07T03:43:22;98613.06;;;21.09;62.24
27840;BME280;15207;42.182;24.308;2023-08-07T03:45:53;98611.59;;;21.13;61.97
27840;BME280;15207;42.182;24.308;2023-08-07T03:48:19;98618.50;;;21.16;61.82
27840;BME280;15207;42.182;24.308;2023-08-07T03:50:45;98624.38;;;21.19;61.87
27840;BME280;15207;42.182;24.308;2023-08-07T03:53:11;98630.44;;;21.14;62.08
27840;BME280;15207;42.182;24.308;2023-08-07T03:55:36;98633.16;;;21.21;61.88
27840;BME280;15207;42.182;24.308;2023-08-07T03:58:02;98631.31;;;21.22;61.82
27840;BME280;15207;42.182;24.308;2023-08-07T04:00:28;98631.06;;;21.10;61.72
27840;BME280;15207;42.182;24.308;2023-08-07T04:02:54;98645.69;;;20.95;62.86
27840;BME280;15207;42.182;24.308;2023-08-07T04:05:19;98634.97;;;20.87;63.58
27840;BME280;15207;42.182;24.308;2023-08-07T04:07:45;98632.63;;;20.77;63.82
27840;BME280;15207;42.182;24.308;2023-08-07T04:10:10;98643.50;;;20.77;64.08
27840;BME280;15207;42.182;24.308;2023-08-07T04:12:36;98651.25;;;20.80;64.28
27840;BME280;15207;42.182;24.308;2023-08-07T04:15:02;98642.47;;;20.78;64.76
27840;BME280;15207;42.182;24.308;2023-08-07T04:17:28;98645.88;;;20.87;64.80
27840;BME280;15207;42.182;24.308;2023-08-07T04:19:54;98647.97;;;20.98;63.80
27840;BME280;15207;42.182;24.308;2023-08-07T04:22:19;98657.41;;;21.03;64.43
27840;BME280;15207;42.182;24.308;2023-08-07T04:24:45;98660.34;;;21.08;63.86
27840;BME280;15207;42.182;24.308;2023-08-07T04:27:11;98661.25;;;21.22;63.92
27840;BME280;15207;42.182;24.308;2023-08-07T04:29:37;98668.78;;;21.33;62.90
27840;BME280;15207;42.182;24.308;2023-08-07T04:32:03;98668.81;;;21.40;63.11
27840;BME280;15207;42.182;24.308;2023-08-07T04:34:28;98672.38;;;21.54;62.37
27840;BME280;15207;42.182;24.308;2023-08-07T04:36:54;98666.72;;;21.83;61.36
27840;BME280;15207;42.182;24.308;2023-08-07T04:39:21;98662.94;;;22.04;60.40
27840;BME280;15207;42.182;24.308;2023-08-07T04:41:47;98661.84;;;22.32;59.38
27840;BME280;15207;42.182;24.308;2023-08-07T04:44:18;98666.84;;;22.55;58.71
27840;BME280;15207;42.182;24.308;2023-08-07T04:46:43;98668.44;;;22.77;57.62
27840;BME280;15207;42.182;24.308;2023-08-07T04:49:09;98675.47;;;22.91;56.56
27840;BME280;15207;42.182;24.308;2023-08-07T04:51:35;98671.03;;;23.04;56.35
27840;BME280;15207;42.182;24.308;2023-08-07T04:54:00;98669.59;;;23.27;55.73
27840;BME280;15207;42.182;24.308;2023-08-07T04:56:27;98674.13;;;23.46;54.88
27840;BME280;15207;42.182;24.308;2023-08-07T04:58:53;98671.69;;;23.63;54.40
27840;BME280;15207;42.182;24.308;2023-08-07T05:01:19;98676.66;;;23.73;53.93
27840;BME280;15207;42.182;24.308;2023-08-07T05:03:47;98675.34;;;23.83;53.70
27840;BME280;15207;42.182;24.308;2023-08-07T05:06:14;98680.81;;;24.01;52.96
27840;BME280;15207;42.182;24.308;2023-08-07T05:08:39;98683.41;;;24.22;52.51
27840;BME280;15207;42.182;24.308;2023-08-07T05:11:05;98678.63;;;24.36;52.08
27840;BME280;15207;42.182;24.308;2023-08-07T05:13:31;98669.56;;;24.54;50.88
27840;BME280;15207;42.182;24.308;2023-08-07T05:15:57;98671.78;;;24.64;50.01
27840;BME280;15207;42.182;24.308;2023-08-07T05:18:22;98668.69;;;24.60;50.57
27840;BME280;15207;42.182;24.308;2023-08-07T05:20:48;98668.53;;;24.55;50.75
27840;BME280;15207;42.182;24.308;2023-08-07T05:23:13;98671.50;;;24.35;50.72
27840;BME280;15207;42.182;24.308;2023-08-07T05:25:39;98664.25;;;24.22;51.64
27840;BME280;15207;42.182;24.308;2023-08-07T05:28:04;98652.94;;;24.37;51.55
27840;BME280;15207;42.182;24.308;2023-08-07T05:30:31;98655.53;;;24.32;51.26
27840;BME280;15207;42.182;24.308;2023-08-07T05:32:57;98648.53;;;24.36;51.68
27840;BME280;15207;42.182;24.308;2023-08-07T05:35:22;98647.41;;;24.43;50.30
27840;BME280;15207;42.182;24.308;2023-08-07T05:37:48;98650.91;;;24.51;51.37
27840;BME280;15207;42.182;24.308;2023-08-07T05:40:13;98651.94;;;24.68;50.47
27840;BME280;15207;42.182;24.308;2023-08-07T05:42:39;98654.44;;;24.70;50.95
27840;BME280;15207;42.182;24.308;2023-08-07T05:45:06;98650.06;;;25.00;50.84
27840;BME280;15207;42.182;24.308;2023-08-07T05:47:32;98652.81;;;25.00;48.73
27840;BME280;15207;42.182;24.308;2023-08-07T05:49:57;98642.66;;;24.88;49.17
27840;BME280;15207;42.182;24.308;2023-08-07T05:52:23;98656.19;;;24.83;49.38
27840;BME280;15207;42.182;24.308;2023-08-07T05:54:49;98650.28;;;24.86;49.22
27840;BME280;15207;42.182;24.308;2023-08-07T05:57:15;98640.75;;;24.89;49.77
27840;BME280;15207;42.182;24.308;2023-08-07T05:59:40;98654.25;;;25.02;49.63
27840;BME280;15207;42.182;24.308;2023-08-07T06:02:06;98651.41;;;25.09;49.24
27840;BME280;15207;42.182;24.308;2023-08-07T06:04:31;98653.25;;;25.15;49.60
27840;BME280;15207;42.182;24.308;2023-08-07T06:06:57;98655.94;;;25.46;49.52
27840;BME280;15207;42.182;24.308;2023-08-07T06:09:22;98660.16;;;25.30;48.18
27840;BME280;15207;42.182;24.308;2023-08-07T06:11:48;98661.34;;;25.22;48.76
27840;BME280;15207;42.182;24.308;2023-08-07T06:14:15;98655.72;;;25.17;48.89
27840;BME280;15207;42.182;24.308;2023-08-07T06:16:41;98658.88;;;25.20;49.24
27840;BME280;15207;42.182;24.308;2023-08-07T06:19:06;98663.03;;;25.35;49.04
27840;BME280;15207;42.182;24.308;2023-08-07T06:21:32;98656.88;;;25.40;48.41
27840;BME280;15207;42.182;24.308;2023-08-07T06:23:58;98661.31;;;25.53;48.70
27840;BME280;15207;42.182;24.308;2023-08-07T06:26:24;98657.09;;;25.69;47.55
27840;BME280;15207;42.182;24.308;2023-08-07T06:28:50;98645.16;;;25.63;46.77
27840;BME280;15207;42.182;24.308;2023-08-07T06:31:16;98651.59;;;25.57;47.07
27840;BME280;15207;42.182;24.308;2023-08-07T06:33:41;98643.59;;;25.55;47.18
27840;BME280;15207;42.182;24.308;2023-08-07T06:36:07;98641.34;;;25.64;47.45
27840;BME280;15207;42.182;24.308;2023-08-07T06:38:36;98650.75;;;25.56;46.88
27840;BME280;15207;42.182;24.308;2023-08-07T06:41:01;98656.38;;;25.73;47.83
27840;BME280;15207;42.182;24.308;2023-08-07T06:43:27;98652.31;;;25.88;46.77
27840;BME280;15207;42.182;24.308;2023-08-07T06:45:53;98653.97;;;25.89;46.30
27840;BME280;15207;42.182;24.308;2023-08-07T06:48:19;98660.44;;;25.83;46.82
27840;BME280;15207;42.182;24.308;2023-08-07T06:50:47;98670.31;;;26.08;46.75
27840;BME280;15207;42.182;24.308;2023-08-07T06:53:13;98658.88;;;26.11;45.53
27840;BME280;15207;42.182;24.308;2023-08-07T06:55:40;98661.50;;;26.30;45.58
27840;BME280;15207;42.182;24.308;2023-08-07T06:58:06;98663.34;;;26.65;45.73
27840;BME280;15207;42.182;24.308;2023-08-07T07:00:31;98669.00;;;26.99;44.19
27840;BME280;15207;42.182;24.308;2023-08-07T07:02:57;98665.53;;;26.92;44.31
27840;BME280;15207;42.182;24.308;2023-08-07T07:05:23;98666.25;;;26.99;43.47
27840;BME280;15207;42.182;24.308;2023-08-07T07:07:48;98666.94;;;27.06;42.73
27840;BME280;15207;42.182;24.308;2023-08-07T07:10:14;98675.66;;;27.03;43.26
27840;BME280;15207;42.182;24.308;2023-08-07T07:12:40;98678.69;;;27.19;43.17
27840;BME280;15207;42.182;24.308;2023-08-07T07:15:05;98669.22;;;27.27;42.73
27840;BME280;15207;42.182;24.308;2023-08-07T07:17:31;98682.19;;;27.14;42.96
27840;BME280;15207;42.182;24.308;2023-08-07T07:19:56;98669.78;;;27.12;42.08
27840;BME280;15207;42.182;24.308;2023-08-07T07:22:24;98673.16;;;26.90;42.17
27840;BME280;15207;42.182;24.308;2023-08-07T07:24:50;98662.59;;;26.93;42.64
27840;BME280;15207;42.182;24.308;2023-08-07T07:27:15;98657.91;;;27.23;42.46
27840;BME280;15207;42.182;24.308;2023-08-07T07:29:41;98652.09;;;27.37;42.82
27840;BME280;15207;42.182;24.308;2023-08-07T07:32:07;98658.19;;;27.56;41.82
27840;BME280;15207;42.182;24.308;2023-08-07T07:34:32;98647.09;;;27.51;42.11
27840;BME280;15207;42.182;24.308;2023-08-07T07:36:58;98656.13;;;27.63;41.48
27840;BME280;15207;42.182;24.308;2023-08-07T07:39:24;98661.53;;;27.75;41.12
27840;BME280;15207;42.182;24.308;2023-08-07T07:41:49;98650.28;;;27.94;40.33
27840;BME280;15207;42.182;24.308;2023-08-07T07:44:15;98645.19;;;28.03;39.75
27840;BME280;15207;42.182;24.308;2023-08-07T07:46:41;98655.59;;;28.01;38.86
27840;BME280;15207;42.182;24.308;2023-08-07T07:49:06;98650.31;;;28.16;38.67
27840;BME280;15207;42.182;24.308;2023-08-07T07:51:32;98654.50;;;28.19;38.79
27840;BME280;15207;42.182;24.308;2023-08-07T07:53:58;98651.75;;;28.19;37.16
27840;BME280;15207;42.182;24.308;2023-08-07T07:56:24;98652.50;;;28.14;36.50
27840;BME280;15207;42.182;24.308;2023-08-07T07:58:50;98655.03;;;28.38;37.15
27840;BME280;15207;42.182;24.308;2023-08-07T08:01:15;98643.09;;;28.49;36.71
27840;BME280;15207;42.182;24.308;2023-08-07T08:03:43;98636.50;;;28.73;36.43
27840;BME280;15207;42.182;24.308;2023-08-07T08:06:11;98642.88;;;28.78;35.90
27840;BME280;15207;42.182;24.308;2023-08-07T08:08:37;98643.50;;;29.08;35.13
27840;BME280;15207;42.182;24.308;2023-08-07T08:11:03;98637.56;;;28.94;34.30
27840;BME280;15207;42.182;24.308;2023-08-07T08:13:28;98641.84;;;28.85;35.56
27840;BME280;15207;42.182;24.308;2023-08-07T08:15:54;98632.63;;;28.96;36.52
27840;BME280;15207;42.182;24.308;2023-08-07T08:18:19;98633.44;;;28.97;34.53
27840;BME280;15207;42.182;24.308;2023-08-07T08:20:45;98638.44;;;29.00;35.49
27840;BME280;15207;42.182;24.308;2023-08-07T08:23:10;98631.84;;;29.01;36.04
27840;BME280;15207;42.182;24.308;2023-08-07T08:25:36;98634.69;;;29.11;34.94
27840;BME280;15207;42.182;24.308;2023-08-07T08:28:02;98628.72;;;29.20;33.97
27840;BME280;15207;42.182;24.308;2023-08-07T08:30:28;98623.16;;;29.14;34.01
27840;BME280;15207;42.182;24.308;2023-08-07T08:32:54;98624.75;;;29.38;34.85
27840;BME280;15207;42.182;24.308;2023-08-07T08:35:20;98616.78;;;29.41;34.32
27840;BME280;15207;42.182;24.308;2023-08-07T08:37:46;98617.66;;;29.47;33.19
27840;BME280;15207;42.182;24.308;2023-08-07T08:40:12;98614.03;;;29.41;33.48
27840;BME280;15207;42.182;24.308;2023-08-07T08:42:43;98608.06;;;29.50;34.32
27840;BME280;15207;42.182;24.308;2023-08-07T08:45:09;98606.91;;;29.46;33.63
27840;BME280;15207;42.182;24.308;2023-08-07T08:47:38;98608.88;;;29.17;34.13
27840;BME280;15207;42.182;24.308;2023-08-07T08:50:09;98596.56;;;29.25;33.89
27840;BME280;15207;42.182;24.308;2023-08-07T08:52:38;98603.59;;;29.43;33.17
27840;BME280;15207;42.182;24.308;2023-08-07T08:55:04;98591.53;;;29.50;33.00
27840;BME280;15207;42.182;24.308;2023-08-07T08:57:30;98591.16;;;29.74;33.16
27840;BME280;15207;42.182;24.308;2023-08-07T08:59:56;98591.91;;;29.64;33.26
27840;BME280;15207;42.182;24.308;2023-08-07T09:02:23;98590.97;;;29.86;33.49
27840;BME280;15207;42.182;24.308;2023-08-07T09:04:48;98590.97;;;29.86;32.75
27840;BME280;15207;42.182;24.308;2023-08-07T09:07:15;98586.34;;;30.02;33.70
27840;BME280;15207;42.182;24.308;2023-08-07T09:09:44;98582.41;;;30.35;33.08
27840;BME280;15207;42.182;24.308;2023-08-07T09:12:12;98582.38;;;30.30;33.14
27840;BME280;15207;42.182;24.308;2023-08-07T09:14:40;98575.66;;;30.11;32.17
27840;BME280;15207;42.182;24.308;2023-08-07T09:17:07;98571.00;;;30.21;32.04
27840;BME280;15207;42.182;24.308;2023-08-07T09:19:33;98567.25;;;30.43;32.19
27840;BME280;15207;42.182;24.308;2023-08-07T09:21:59;98566.94;;;30.45;30.65
27840;BME280;15207;42.182;24.308;2023-08-07T09:24:25;98561.34;;;30.19;32.07
27840;BME280;15207;42.182;24.308;2023-08-07T09:26:51;98559.31;;;30.04;32.66
27840;BME280;15207;42.182;24.308;2023-08-07T09:29:21;98548.03;;;30.05;31.71
27840;BME280;15207;42.182;24.308;2023-08-07T09:31:49;98552.28;;;30.29;32.77
27840;BME280;15207;42.182;24.308;2023-08-07T09:34:14;98543.75;;;30.35;32.20
27840;BME280;15207;42.182;24.308;2023-08-07T09:36:46;98546.78;;;30.39;31.79
27840;BME280;15207;42.182;24.308;2023-08-07T09:39:12;98544.66;;;30.67;31.06
27840;BME280;15207;42.182;24.308;2023-08-07T09:41:38;98538.91;;;31.00;30.49
27840;BME280;15207;42.182;24.308;2023-08-07T09:44:07;98533.41;;;31.05;30.96
27840;BME280;15207;42.182;24.308;2023-08-07T09:46:40;98543.63;;;31.20;31.10
27840;BME280;15207;42.182;24.308;2023-08-07T09:49:06;98536.19;;;31.05;30.53
27840;BME280;15207;42.182;24.308;2023-08-07T09:51:49;98532.00;;;30.77;30.59
27840;BME280;15207;42.182;24.308;2023-08-07T09:54:17;98524.56;;;30.98;30.26
27840;BME280;15207;42.182;24.308;2023-08-07T09:56:47;98521.25;;;30.85;29.96
27840;BME280;15207;42.182;24.308;2023-08-07T09:59:13;98534.22;;;30.95;29.78
27840;BME280;15207;42.182;24.308;2023-08-07T10:01:38;98532.22;;;30.65;30.71
27840;BME280;15207;42.182;24.308;2023-08-07T10:04:05;98524.81;;;30.81;30.25
27840;BME280;15207;42.182;24.308;2023-08-07T10:06:32;98514.59;;;30.81;29.35
27840;BME280;15207;42.182;24.308;2023-08-07T10:08:57;98513.50;;;31.08;28.80
27840;BME280;15207;42.182;24.308;2023-08-07T10:11:25;98510.19;;;31.06;29.71
27840;BME280;15207;42.182;24.308;2023-08-07T10:13:51;98514.88;;;31.11;29.64
27840;BME280;15207;42.182;24.308;2023-08-07T10:16:17;98502.13;;;30.68;28.91
27840;BME280;15207;42.182;24.308;2023-08-07T10:18:42;98499.94;;;30.70;29.68
27840;BME280;15207;42.182;24.308;2023-08-07T10:21:08;98506.06;;;30.98;29.60
27840;BME280;15207;42.182;24.308;2023-08-07T10:23:35;98506.31;;;31.23;30.27
27840;BME280;15207;42.182;24.308;2023-08-07T10:26:05;98495.81;;;31.14;29.80
27840;BME280;15207;42.182;24.308;2023-08-07T10:28:36;98499.16;;;30.80;28.96
27840;BME280;15207;42.182;24.308;2023-08-07T10:31:05;98486.72;;;30.93;29.56
27840;BME280;15207;42.182;24.308;2023-08-07T10:33:32;98485.59;;;31.20;28.61
27840;BME280;15207;42.182;24.308;2023-08-07T10:35:58;98481.41;;;31.49;28.59
27840;BME280;15207;42.182;24.308;2023-08-07T10:38:28;98476.19;;;31.37;28.57
27840;BME280;15207;42.182;24.308;2023-08-07T10:41:07;98480.59;;;31.53;29.13
27840;BME280;15207;42.182;24.308;2023-08-07T10:43:41;98484.97;;;31.70;29.00
27840;BME280;15207;42.182;24.308;2023-08-07T10:46:19;98476.63;;;31.75;27.05
27840;BME280;15207;42.182;24.308;2023-08-07T10:48:47;98471.44;;;31.53;26.99
27840;BME280;15207;42.182;24.308;2023-08-07T10:51:28;98472.00;;;31.65;27.08
27840;BME280;15207;42.182;24.308;2023-08-07T10:53:54;98470.91;;;31.56;28.38
27840;BME280;15207;42.182;24.308;2023-08-07T10:56:35;98470.03;;;31.66;30.14
27840;BME280;15207;42.182;24.308;2023-08-07T10:59:11;98474.13;;;31.84;28.72
27840;BME280;15207;42.182;24.308;2023-08-07T11:01:43;98458.66;;;31.78;27.58
27840;BME280;15207;42.182;24.308;2023-08-07T11:04:12;98463.66;;;31.71;28.04
27840;BME280;15207;42.182;24.308;2023-08-07T11:06:40;98458.53;;;32.09;27.39
27840;BME280;15207;42.182;24.308;2023-08-07T11:09:07;98448.66;;;31.92;27.51
27840;BME280;15207;42.182;24.308;2023-08-07T11:11:40;98453.09;;;31.93;28.18
27840;BME280;15207;42.182;24.308;2023-08-07T11:14:06;98454.72;;;31.95;28.86
27840;BME280;15207;42.182;24.308;2023-08-07T11:16:34;98450.94;;;31.70;28.51
27840;BME280;15207;42.182;24.308;2023-08-07T11:19:00;98446.47;;;31.79;28.65
27840;BME280;15207;42.182;24.308;2023-08-07T11:21:25;98445.34;;;31.96;27.80
27840;BME280;15207;42.182;24.308;2023-08-07T11:23:51;98438.16;;;31.89;27.51
27840;BME280;15207;42.182;24.308;2023-08-07T11:26:17;98443.16;;;31.87;27.59
27840;BME280;15207;42.182;24.308;2023-08-07T11:28:42;98434.25;;;31.85;28.90
27840;BME280;15207;42.182;24.308;2023-08-07T11:31:08;98430.47;;;31.71;27.69
27840;BME280;15207;42.182;24.308;2023-08-07T11:33:35;98438.97;;;31.85;27.92
27840;BME280;15207;42.182;24.308;2023-08-07T11:36:01;98431.81;;;31.89;27.66
27840;BME280;15207;42.182;24.308;2023-08-07T11:38:33;98435.66;;;31.88;27.60
27840;BME280;15207;42.182;24.308;2023-08-07T11:41:04;98426.81;;;31.86;26.96
27840;BME280;15207;42.182;24.308;2023-08-07T11:43:32;98424.31;;;31.89;27.33
27840;BME280;15207;42.182;24.308;2023-08-07T11:45:58;98422.94;;;31.87;28.55
27840;BME280;15207;42.182;24.308;2023-08-07T11:48:26;98422.25;;;32.16;27.92
27840;BME280;15207;42.182;24.308;2023-08-07T11:50:53;98426.09;;;32.20;27.64
27840;BME280;15207;42.182;24.308;2023-08-07T11:53:23;98420.75;;;32.34;27.21
27840;BME280;15207;42.182;24.308;2023-08-07T11:55:53;98418.16;;;32.53;26.90
27840;BME280;15207;42.182;24.308;2023-08-07T11:58:20;98423.31;;;32.65;25.92
27840;BME280;15207;42.182;24.308;2023-08-07T12:00:46;98420.28;;;32.62;26.75
27840;BME280;15207;42.182;24.308;2023-08-07T12:03:28;98408.50;;;32.40;26.69
27840;BME280;15207;42.182;24.308;2023-08-07T12:05:56;98400.31;;;32.25;26.68
27840;BME280;15207;42.182;24.308;2023-08-07T12:08:30;98410.06;;;32.17;26.19
27840;BME280;15207;42.182;24.308;2023-08-07T12:10:57;98398.63;;;31.78;26.14
27840;BME280;15207;42.182;24.308;2023-08-07T12:13:25;98398.06;;;31.76;26.18
27840;BME280;15207;42.182;24.308;2023-08-07T12:15:56;98400.72;;;31.42;26.65
27840;BME280;15207;42.182;24.308;2023-08-07T12:18:23;98387.56;;;31.78;26.77
27840;BME280;15207;42.182;24.308;2023-08-07T12:20:50;98389.38;;;32.04;27.29
27840;BME280;15207;42.182;24.308;2023-08-07T12:23:17;98381.50;;;32.27;25.33
27840;BME280;15207;42.182;24.308;2023-08-07T12:25:44;98383.59;;;32.00;26.39
27840;BME280;15207;42.182;24.308;2023-08-07T12:28:13;98382.63;;;32.20;26.62
27840;BME280;15207;42.182;24.308;2023-08-07T12:30:42;98378.75;;;32.22;26.62
27840;BME280;15207;42.182;24.308;2023-08-07T12:33:09;98378.03;;;32.05;26.54
27840;BME280;15207;42.182;24.308;2023-08-07T12:35:34;98373.81;;;32.13;27.51
27840;BME280;15207;42.182;24.308;2023-08-07T12:38:01;98380.63;;;32.31;26.75
27840;BME280;15207;42.182;24.308;2023-08-07T12:40:30;98372.81;;;32.44;26.10
27840;BME280;15207;42.182;24.308;2023-08-07T12:42:58;98373.91;;;32.38;25.93
27840;BME280;15207;42.182;24.308;2023-08-07T12:45:24;98376.63;;;32.48;25.65
27840;BME280;15207;42.182;24.308;2023-08-07T12:47:49;98382.78;;;32.40;26.33
27840;BME280;15207;42.182;24.308;2023-08-07T12:50:15;98376.69;;;32.38;26.91